createdAt,value
2019-03-04T00:00:40.216Z,2.00
2019-03-04T00:01:40.211Z,1.60
2019-03-04T00:02:40.194Z,1.40
2019-03-04T00:03:40.200Z,1.40
2019-03-04T00:04:40.176Z,1.30
2019-03-04T00:05:40.168Z,1.50
2019-03-04T00:06:40.150Z,0.80
2019-03-04T00:07:40.155Z,0.90
2019-03-04T00:08:40.142Z,1.10
2019-03-04T00:09:40.122Z,1.80
2019-03-04T00:10:40.105Z,1.00
2019-03-04T00:11:40.102Z,2.00
2019-03-04T00:12:40.086Z,1.20
2019-03-04T00:13:40.098Z,1.30
2019-03-04T00:14:40.087Z,1.30
2019-03-04T00:15:40.060Z,0.80
2019-03-04T00:16:40.050Z,1.50
2019-03-04T00:17:40.033Z,1.20
2019-03-04T00:18:40.030Z,1.30
2019-03-04T00:19:40.012Z,1.40
2019-03-04T00:20:39.996Z,1.40
2019-03-04T00:21:39.990Z,0.90
2019-03-04T00:22:39.974Z,1.30
2019-03-04T00:23:39.983Z,1.30
2019-03-04T00:24:39.957Z,1.50
2019-03-04T00:25:39.946Z,1.50
2019-03-04T00:26:39.930Z,1.10
2019-03-04T00:27:39.927Z,1.10
2019-03-04T00:28:39.923Z,1.10
2019-03-04T00:29:39.906Z,1.20
2019-03-04T00:30:39.903Z,1.10
2019-03-04T00:31:39.882Z,1.10
2019-03-04T00:32:39.864Z,1.20
2019-03-04T00:33:39.872Z,1.50
2019-03-04T00:34:39.847Z,1.00
2019-03-04T00:35:39.840Z,0.90
2019-03-04T00:36:39.826Z,1.10
2019-03-04T00:37:39.815Z,1.60
2019-03-04T00:38:39.813Z,1.30
2019-03-04T00:39:39.795Z,0.80
2019-03-04T00:40:39.780Z,1.20
2019-03-04T00:41:39.774Z,1.60
2019-03-04T00:42:39.756Z,1.30
2019-03-04T00:43:39.766Z,1.10
2019-03-04T00:44:39.737Z,0.60
2019-03-04T00:45:39.726Z,1.30
2019-03-04T00:46:39.711Z,1.20
2019-03-04T00:47:39.705Z,1.20
2019-03-04T00:48:39.690Z,0.80
2019-03-04T00:49:39.697Z,0.80
2019-03-04T00:50:39.666Z,1.10
2019-03-04T00:51:39.671Z,1.20
2019-03-04T00:52:39.644Z,0.80
2019-03-04T00:53:39.647Z,1.30
2019-03-04T00:54:39.636Z,1.30
2019-03-04T00:55:39.626Z,1.20
2019-03-04T00:56:39.602Z,1.20
2019-03-04T00:57:39.608Z,1.00
2019-03-04T00:58:39.584Z,1.30
2019-03-04T00:59:39.588Z,1.30
2019-03-04T01:00:39.559Z,1.20
2019-03-04T01:01:39.553Z,1.00
2019-03-04T01:02:39.537Z,1.40
2019-03-04T01:03:39.530Z,0.90
2019-03-04T01:04:39.527Z,0.90
2019-03-04T01:05:39.515Z,1.30
2019-03-04T01:06:39.491Z,0.80
2019-03-04T01:07:39.488Z,1.30
2019-03-04T01:08:39.473Z,1.40
2019-03-04T01:09:39.482Z,0.80
2019-03-04T01:10:39.448Z,1.40
2019-03-04T01:11:39.445Z,0.80
2019-03-04T01:12:39.426Z,1.20
2019-03-04T01:13:39.423Z,1.40
2019-03-04T01:14:39.418Z,0.90
2019-03-04T01:15:39.406Z,1.10
2019-03-04T01:16:39.391Z,1.00
2019-03-04T01:17:39.375Z,1.40
2019-03-04T01:18:39.360Z,0.90
2019-03-04T01:19:39.370Z,1.10
2019-03-04T01:20:40.484Z,1.10
2019-03-04T01:21:39.345Z,0.70
2019-03-04T01:22:39.323Z,1.00
2019-03-04T01:23:39.311Z,1.00
2019-03-04T01:24:39.309Z,1.20
2019-03-04T01:25:39.291Z,0.70
2019-03-04T01:26:39.274Z,0.70
2019-03-04T01:27:39.272Z,0.80
2019-03-04T01:28:39.252Z,1.10
2019-03-04T01:29:39.264Z,1.00
2019-03-04T01:30:39.230Z,0.90
2019-03-04T01:31:39.226Z,1.80
2019-03-04T01:32:39.208Z,1.30
2019-03-04T01:33:39.209Z,0.70
2019-03-04T01:34:39.206Z,0.50
2019-03-04T01:35:39.180Z,1.00
2019-03-04T01:36:39.164Z,0.80
2019-03-04T01:37:39.161Z,0.80
2019-03-04T01:38:39.145Z,1.10
2019-03-04T01:39:39.152Z,1.00
2019-03-04T01:40:39.124Z,1.00
2019-03-04T01:41:39.115Z,1.20
2019-03-04T01:42:39.101Z,1.20
2019-03-04T01:43:39.093Z,0.80
2019-03-04T01:44:39.096Z,1.20
2019-03-04T01:45:39.078Z,1.20
2019-03-04T01:46:39.062Z,1.00
2019-03-04T01:47:39.049Z,1.10
2019-03-04T01:48:39.035Z,1.20
2019-03-04T01:49:39.042Z,1.30
2019-03-04T01:50:39.015Z,0.90
2019-03-04T01:51:39.013Z,0.80
2019-03-04T01:52:38.991Z,1.50
2019-03-04T01:53:38.983Z,0.60
2019-03-04T01:54:38.973Z,0.60
2019-03-04T01:55:38.980Z,0.70
2019-03-04T01:56:38.951Z,0.90
2019-03-04T01:57:38.958Z,0.90
2019-03-04T01:58:38.928Z,0.50
2019-03-04T01:59:38.919Z,1.00
2019-03-04T02:00:38.921Z,1.00
2019-03-04T02:01:38.897Z,0.90
2019-03-04T02:02:38.884Z,1.00
2019-03-04T02:03:38.881Z,0.90
2019-03-04T02:04:38.862Z,1.10
2019-03-04T02:05:38.866Z,1.10
2019-03-04T02:06:38.840Z,1.10
2019-03-04T02:07:38.836Z,1.20
2019-03-04T02:08:38.821Z,1.10
2019-03-04T02:09:38.809Z,1.40
2019-03-04T02:10:38.808Z,0.60
2019-03-04T02:11:38.788Z,0.60
2019-03-04T02:12:38.773Z,0.80
2019-03-04T02:13:38.767Z,0.50
2019-03-04T02:14:38.758Z,1.10
2019-03-04T02:15:38.765Z,0.80
2019-03-04T02:16:38.728Z,0.70
2019-03-04T02:17:38.723Z,1.20
2019-03-04T02:18:38.760Z,0.80
2019-03-04T02:19:38.706Z,0.90
2019-03-04T02:20:38.704Z,1.30
2019-03-04T02:21:38.683Z,0.90
2019-03-04T02:22:38.666Z,0.90
2019-03-04T02:23:38.659Z,0.80
2019-03-04T02:24:38.645Z,0.90
2019-03-04T02:25:38.651Z,1.10
2019-03-04T02:26:38.621Z,0.90
2019-03-04T02:27:38.615Z,1.20
2019-03-04T02:28:38.601Z,1.10
2019-03-04T02:29:38.593Z,0.70
2019-03-04T02:30:38.593Z,0.60
2019-03-04T02:31:38.578Z,1.20
2019-03-04T02:32:38.563Z,1.00
2019-03-04T02:33:38.550Z,0.60
2019-03-04T02:34:38.540Z,0.80
2019-03-04T02:35:38.543Z,1.20
2019-03-04T02:36:38.512Z,0.60
2019-03-04T02:37:38.506Z,1.00
2019-03-04T02:38:38.491Z,0.70
2019-03-04T02:39:38.497Z,0.90
2019-03-04T02:40:38.482Z,0.90
2019-03-04T02:41:38.463Z,0.80
2019-03-04T02:42:38.470Z,0.80
2019-03-04T02:43:38.451Z,0.70
2019-03-04T02:44:38.431Z,0.80
2019-03-04T02:45:38.441Z,0.90
2019-03-04T02:46:38.406Z,0.80
2019-03-04T02:47:38.401Z,1.10
2019-03-04T02:48:38.384Z,0.80
2019-03-04T02:49:38.390Z,1.10
2019-03-04T02:50:38.380Z,0.90
2019-03-04T02:51:38.362Z,0.60
2019-03-04T02:52:38.341Z,0.70
2019-03-04T02:53:38.335Z,0.90
2019-03-04T02:54:38.322Z,1.20
2019-03-04T02:55:38.323Z,0.70
2019-03-04T02:56:38.298Z,0.70
2019-03-04T02:57:38.303Z,0.90
2019-03-04T02:58:38.279Z,0.70
2019-03-04T02:59:38.274Z,1.00
2019-03-04T03:00:38.264Z,1.30
2019-03-04T03:01:38.260Z,0.50
2019-03-04T03:02:38.237Z,0.60
2019-03-04T03:03:38.230Z,0.70
2019-03-04T03:04:38.220Z,1.10
2019-03-04T03:05:38.224Z,0.80
2019-03-04T03:06:38.192Z,0.70
2019-03-04T03:07:38.185Z,0.70
2019-03-04T03:08:38.167Z,0.90
2019-03-04T03:09:38.165Z,0.50
2019-03-04T03:10:38.157Z,0.50
2019-03-04T03:11:38.141Z,1.00
2019-03-04T03:12:38.134Z,0.90
2019-03-04T03:13:38.128Z,0.90
2019-03-04T03:14:38.102Z,0.90
2019-03-04T03:15:38.106Z,0.70
2019-03-04T03:16:38.082Z,1.30
2019-03-04T03:17:38.106Z,0.60
2019-03-04T03:18:38.060Z,0.70
2019-03-04T03:19:38.053Z,0.60
2019-03-04T03:20:38.067Z,0.70
2019-03-04T03:21:38.028Z,0.60
2019-03-04T03:22:38.026Z,0.70
2019-03-04T03:23:38.011Z,0.60
2019-03-04T03:24:37.991Z,0.50
2019-03-04T03:25:38.001Z,0.70
2019-03-04T03:26:37.969Z,0.50
2019-03-04T03:27:37.965Z,0.50
2019-03-04T03:28:37.957Z,0.40
2019-03-04T03:29:37.945Z,0.60
2019-03-04T03:30:37.963Z,1.20
2019-03-04T03:31:37.921Z,1.10
2019-03-04T03:32:37.912Z,0.80
2019-03-04T03:33:37.909Z,0.70
2019-03-04T03:34:37.884Z,0.60
2019-03-04T03:35:37.878Z,1.00
2019-03-04T03:36:37.883Z,0.80
2019-03-04T03:37:37.858Z,0.50
2019-03-04T03:38:37.840Z,0.30
2019-03-04T03:39:37.839Z,0.90
2019-03-04T03:40:37.817Z,0.80
2019-03-04T03:41:37.830Z,1.00
2019-03-04T03:42:37.807Z,0.70
2019-03-04T03:43:37.869Z,0.60
2019-03-04T03:44:37.773Z,0.40
2019-03-04T03:45:37.772Z,0.80
2019-03-04T03:46:37.782Z,0.80
2019-03-04T03:47:37.763Z,0.60
2019-03-04T03:48:37.730Z,0.80
2019-03-04T03:49:37.729Z,0.80
2019-03-04T03:50:37.711Z,0.50
2019-03-04T03:51:37.720Z,0.60
2019-03-04T03:52:37.692Z,0.60
2019-03-04T03:53:37.693Z,0.80
2019-03-04T03:54:37.677Z,0.50
2019-03-04T03:55:37.659Z,0.60
2019-03-04T03:56:37.673Z,0.60
2019-03-04T03:57:37.636Z,0.60
2019-03-04T03:58:37.640Z,0.40
2019-03-04T03:59:37.619Z,1.20
2019-03-04T04:00:37.619Z,0.50
2019-03-04T04:01:37.610Z,0.70
2019-03-04T04:02:37.577Z,0.80
2019-03-04T04:03:37.570Z,0.70
2019-03-04T04:04:37.562Z,0.40
2019-03-04T04:05:37.561Z,0.60
2019-03-04T04:06:37.570Z,0.70
2019-03-04T04:07:37.529Z,0.60
2019-03-04T04:08:37.520Z,1.00
2019-03-04T04:09:37.513Z,0.60
2019-03-04T04:10:37.496Z,0.50
2019-03-04T04:11:37.507Z,0.20
2019-03-04T04:12:37.468Z,0.80
2019-03-04T04:13:37.467Z,0.60
2019-03-04T04:14:37.449Z,1.10
2019-03-04T04:15:37.445Z,0.80
2019-03-04T04:16:37.440Z,1.00
2019-03-04T04:17:37.423Z,0.50
2019-03-04T04:18:37.403Z,0.70
2019-03-04T04:19:37.414Z,0.50
2019-03-04T04:20:37.385Z,0.90
2019-03-04T04:21:37.407Z,0.50
2019-03-04T04:22:37.365Z,0.80
2019-03-04T04:23:37.360Z,0.40
2019-03-04T04:24:37.337Z,0.50
2019-03-04T04:25:37.330Z,1.20
2019-03-04T04:26:37.350Z,0.80
2019-03-04T04:27:37.313Z,0.60
2019-03-04T04:28:37.297Z,0.40
2019-03-04T04:29:37.287Z,0.60
2019-03-04T04:30:37.278Z,0.70
2019-03-04T04:31:37.295Z,0.60
2019-03-04T04:32:37.270Z,0.60
2019-03-04T04:33:37.248Z,0.60
2019-03-04T04:34:37.233Z,0.50
2019-03-04T04:35:37.226Z,0.80
2019-03-04T04:36:37.221Z,0.40
2019-03-04T04:37:37.205Z,0.50
2019-03-04T04:38:37.186Z,0.60
2019-03-04T04:39:37.182Z,0.70
2019-03-04T04:40:37.165Z,0.50
2019-03-04T04:41:37.172Z,0.60
2019-03-04T04:42:37.142Z,0.50
2019-03-04T04:43:37.135Z,0.80
2019-03-04T04:44:37.123Z,0.60
2019-03-04T04:45:37.119Z,0.80
2019-03-04T04:46:37.111Z,0.60
2019-03-04T04:47:37.091Z,0.60
2019-03-04T04:48:37.085Z,0.80
2019-03-04T04:49:37.069Z,1.10
2019-03-04T04:50:37.054Z,0.60
2019-03-04T04:51:37.075Z,0.80
2019-03-04T04:52:37.033Z,0.90
2019-03-04T04:53:37.025Z,0.70
2019-03-04T04:54:37.010Z,0.70
2019-03-04T04:55:37.005Z,0.80
2019-03-04T04:56:36.992Z,0.50
2019-03-04T04:57:36.999Z,0.80
2019-03-04T04:58:36.968Z,0.50
2019-03-04T04:59:36.961Z,0.50
2019-03-04T05:00:36.953Z,0.70
2019-03-04T05:01:36.954Z,0.50
2019-03-04T05:02:36.951Z,0.70
2019-03-04T05:03:36.919Z,0.90
2019-03-04T05:04:36.903Z,0.80
2019-03-04T05:05:36.896Z,0.30
2019-03-04T05:06:36.885Z,0.30
2019-03-04T05:07:36.902Z,0.90
2019-03-04T05:08:36.861Z,0.70
2019-03-04T05:09:36.853Z,0.60
2019-03-04T05:10:36.837Z,0.70
2019-03-04T05:11:36.835Z,0.70
2019-03-04T05:12:36.834Z,0.40
2019-03-04T05:13:36.815Z,0.50
2019-03-04T05:14:36.793Z,0.50
2019-03-04T05:15:36.787Z,0.60
2019-03-04T05:16:36.778Z,0.50
2019-03-04T05:17:36.790Z,0.50
2019-03-04T05:18:36.752Z,0.50
2019-03-04T05:19:36.748Z,0.40
2019-03-04T05:20:36.728Z,0.40
2019-03-04T05:21:36.724Z,0.50
2019-03-04T05:22:36.721Z,0.40
2019-03-04T05:23:36.771Z,0.30
2019-03-04T05:24:36.687Z,0.60
2019-03-04T05:25:36.677Z,0.50
2019-03-04T05:26:36.662Z,0.50
2019-03-04T05:27:36.669Z,0.60
2019-03-04T05:28:36.641Z,0.50
2019-03-04T05:29:36.637Z,0.40
2019-03-04T05:30:36.619Z,0.80
2019-03-04T05:31:36.615Z,0.50
2019-03-04T05:32:36.619Z,0.40
2019-03-04T05:33:36.590Z,0.50
2019-03-04T05:34:36.575Z,0.40
2019-03-04T05:35:36.569Z,0.60
2019-03-04T05:36:36.556Z,0.60
2019-03-04T05:37:36.562Z,0.60
2019-03-04T05:38:36.535Z,0.40
2019-03-04T05:39:36.525Z,0.40
2019-03-04T05:40:36.511Z,0.20
2019-03-04T05:41:36.510Z,0.40
2019-03-04T05:42:37.005Z,0.40
2019-03-04T05:43:36.490Z,0.60
2019-03-04T05:44:36.465Z,0.60
2019-03-04T05:45:36.460Z,0.30
2019-03-04T05:46:36.446Z,0.60
2019-03-04T05:47:36.459Z,0.40
2019-03-04T05:48:36.428Z,0.30
2019-03-04T05:49:36.419Z,0.30
2019-03-04T05:50:36.403Z,0.40
2019-03-04T05:51:36.398Z,0.50
2019-03-04T05:52:36.395Z,0.50
2019-03-04T05:53:36.371Z,0.20
2019-03-04T05:54:36.361Z,0.40
2019-03-04T05:55:36.352Z,0.50
2019-03-04T05:56:36.333Z,0.50
2019-03-04T05:57:36.342Z,0.30
2019-03-04T05:58:36.315Z,0.40
2019-03-04T05:59:36.307Z,0.50
2019-03-04T06:00:36.298Z,0.50
2019-03-04T06:01:36.288Z,0.50
2019-03-04T06:02:36.284Z,0.30
2019-03-04T06:03:36.263Z,0.40
2019-03-04T06:04:36.252Z,0.50
2019-03-04T06:05:36.248Z,0.40
2019-03-04T06:06:36.224Z,0.40
2019-03-04T06:07:36.269Z,0.50
2019-03-04T06:08:36.202Z,0.50
2019-03-04T06:09:36.198Z,0.90
2019-03-04T06:10:36.181Z,0.40
2019-03-04T06:11:36.186Z,0.50
2019-03-04T06:12:36.160Z,0.60
2019-03-04T06:13:36.167Z,0.40
2019-03-04T06:14:36.136Z,0.60
2019-03-04T06:15:36.133Z,0.30
2019-03-04T06:16:36.117Z,0.20
2019-03-04T06:17:36.115Z,0.40
2019-03-04T06:18:36.116Z,0.60
2019-03-04T06:19:36.088Z,0.40
2019-03-04T06:20:36.072Z,0.50
2019-03-04T06:21:36.068Z,0.30
2019-03-04T06:22:36.050Z,0.60
2019-03-04T06:23:36.057Z,0.40
2019-03-04T06:24:36.030Z,0.60
2019-03-04T06:25:36.023Z,0.70
2019-03-04T06:26:36.006Z,0.40
2019-03-04T06:27:36.000Z,0.20
2019-03-04T06:28:36.001Z,0.20
2019-03-04T06:29:35.980Z,0.40
2019-03-04T06:30:35.969Z,0.30
2019-03-04T06:31:35.960Z,1.00
2019-03-04T06:32:35.942Z,0.60
2019-03-04T06:33:35.956Z,0.40
2019-03-04T06:34:35.923Z,0.30
2019-03-04T06:35:35.919Z,0.60
2019-03-04T06:36:35.898Z,0.30
2019-03-04T06:37:35.893Z,0.40
2019-03-04T06:38:35.894Z,0.20
2019-03-04T06:39:35.872Z,0.50
2019-03-04T06:40:35.862Z,0.70
2019-03-04T06:41:35.852Z,0.60
2019-03-04T06:42:35.834Z,0.40
2019-03-04T06:43:35.843Z,0.40
2019-03-04T06:44:35.813Z,0.30
2019-03-04T06:45:35.805Z,0.50
2019-03-04T06:46:35.837Z,0.40
2019-03-04T06:47:35.813Z,0.50
2019-03-04T06:48:35.783Z,0.50
2019-03-04T06:49:35.764Z,0.60
2019-03-04T06:50:35.751Z,0.30
2019-03-04T06:51:35.741Z,0.40
2019-03-04T06:52:35.731Z,0.60
2019-03-04T06:53:35.738Z,0.30
2019-03-04T06:54:35.773Z,0.70
2019-03-04T06:55:35.695Z,0.70
2019-03-04T06:56:35.681Z,0.60
2019-03-04T06:57:35.681Z,0.50
2019-03-04T06:58:35.674Z,0.50
2019-03-04T06:59:35.653Z,0.30
2019-03-04T07:00:35.641Z,0.40
2019-03-04T07:01:35.639Z,0.60
2019-03-04T07:02:35.620Z,0.30
2019-03-04T07:03:35.623Z,0.40
2019-03-04T07:04:35.595Z,0.30
2019-03-04T07:05:35.586Z,0.30
2019-03-04T07:06:35.571Z,0.20
2019-03-04T07:07:35.563Z,0.30
2019-03-04T07:08:35.563Z,0.30
2019-03-04T07:09:35.546Z,0.40
2019-03-04T07:10:35.529Z,0.30
2019-03-04T07:11:35.522Z,0.10
2019-03-04T07:12:35.506Z,0.50
2019-03-04T07:13:35.516Z,0.10
2019-03-04T07:14:35.483Z,0.50
2019-03-04T07:15:35.476Z,0.30
2019-03-04T07:16:35.460Z,0.50
2019-03-04T07:17:35.457Z,0.60
2019-03-04T07:18:35.456Z,0.40
2019-03-04T07:19:35.485Z,0.30
2019-03-04T07:20:35.419Z,0.40
2019-03-04T07:21:35.416Z,0.20
2019-03-04T07:22:35.392Z,0.30
2019-03-04T07:23:35.402Z,0.50
2019-03-04T07:24:35.375Z,0.60
2019-03-04T07:25:35.363Z,0.70
2019-03-04T07:26:35.356Z,0.40
2019-03-04T07:27:35.394Z,0.60
2019-03-04T07:28:35.349Z,0.30
2019-03-04T07:29:35.318Z,0.40
2019-03-04T07:30:35.304Z,0.40
2019-03-04T07:31:35.299Z,0.30
2019-03-04T07:32:35.287Z,0.30
2019-03-04T07:33:35.273Z,0.40
2019-03-04T07:34:35.274Z,0.20
2019-03-04T07:35:35.260Z,0.20
2019-03-04T07:36:35.239Z,0.40
2019-03-04T07:37:35.236Z,0.30
2019-03-04T07:38:35.229Z,0.30
2019-03-04T07:39:35.220Z,0.50
2019-03-04T07:40:35.189Z,0.30
2019-03-04T07:41:35.184Z,0.50
2019-03-04T07:42:35.167Z,0.20
2019-03-04T07:43:35.161Z,0.10
2019-03-04T07:44:35.167Z,0.30
2019-03-04T07:45:35.138Z,0.50
2019-03-04T07:46:35.123Z,0.40
2019-03-04T07:47:35.121Z,0.60
2019-03-04T07:48:35.994Z,0.20
2019-03-04T07:49:35.107Z,0.30
2019-03-04T07:50:35.077Z,0.50
2019-03-04T07:51:35.071Z,0.30
2019-03-04T07:52:35.055Z,0.70
2019-03-04T07:53:35.048Z,0.30
2019-03-04T07:54:35.049Z,0.20
2019-03-04T07:55:35.031Z,0.40
2019-03-04T07:56:35.010Z,0.40
2019-03-04T07:57:35.003Z,0.40
2019-03-04T07:58:34.989Z,0.50
2019-03-04T07:59:35.002Z,0.30
2019-03-04T08:00:34.965Z,0.30
2019-03-04T08:01:34.960Z,0.20
2019-03-04T08:02:34.942Z,0.20
2019-03-04T08:03:34.936Z,0.30
2019-03-04T08:04:34.934Z,0.40
2019-03-04T08:05:34.912Z,0.30
2019-03-04T08:06:34.903Z,0.40
2019-03-04T08:07:34.891Z,0.40
2019-03-04T08:08:34.878Z,0.30
2019-03-04T08:09:34.882Z,0.20
2019-03-04T08:10:34.854Z,0.10
2019-03-04T08:11:34.849Z,0.30
2019-03-04T08:12:34.834Z,0.20
2019-03-04T08:13:34.825Z,0.20
2019-03-04T08:14:34.823Z,0.30
2019-03-04T08:15:34.804Z,0.30
2019-03-04T08:16:36.210Z,0.20
2019-03-04T08:17:34.789Z,0.40
2019-03-04T08:18:34.766Z,0.20
2019-03-04T08:19:34.784Z,0.40
2019-03-04T08:20:34.748Z,0.50
2019-03-04T08:21:34.738Z,0.40
2019-03-04T08:22:34.754Z,0.20
2019-03-04T08:23:34.730Z,0.20
2019-03-04T08:24:34.721Z,0.50
2019-03-04T08:25:34.700Z,0.50
2019-03-04T08:26:34.695Z,0.40
2019-03-04T08:27:34.672Z,0.40
2019-03-04T08:28:34.657Z,0.30
2019-03-04T08:29:34.685Z,0.30
2019-03-04T08:30:34.636Z,0.50
2019-03-04T08:31:34.634Z,0.40
2019-03-04T08:32:34.651Z,0.30
2019-03-04T08:33:35.644Z,0.40
2019-03-04T08:34:34.605Z,0.40
2019-03-04T08:35:34.601Z,0.40
2019-03-04T08:36:34.605Z,0.30
2019-03-04T08:37:34.569Z,0.30
2019-03-04T08:38:34.549Z,0.70
2019-03-04T08:39:34.560Z,0.30
2019-03-04T08:40:34.542Z,0.40
2019-03-04T08:41:34.531Z,0.30
2019-03-04T08:42:34.537Z,0.30
2019-03-04T08:43:34.613Z,0.20
2019-03-04T08:44:34.488Z,0.20
2019-03-04T08:45:34.505Z,0.30
2019-03-04T08:46:34.489Z,0.20
2019-03-04T08:47:34.463Z,0.10
2019-03-04T08:48:34.443Z,0.30
2019-03-04T08:49:34.434Z,0.10
2019-03-04T08:50:34.484Z,0.30
2019-03-04T08:51:34.412Z,0.20
2019-03-04T08:52:34.401Z,0.30
2019-03-04T08:53:34.390Z,0.40
2019-03-04T08:54:34.397Z,0.20
2019-03-04T08:55:34.451Z,0.20
2019-03-04T08:56:34.376Z,0.50
2019-03-04T08:57:34.348Z,0.20
2019-03-04T08:58:34.522Z,0.20
2019-03-04T08:59:34.327Z,0.40
2019-03-04T09:00:34.348Z,0.30
2019-03-04T09:01:34.319Z,0.20
2019-03-04T09:02:34.299Z,0.20
2019-03-04T09:03:34.320Z,0.40
2019-03-04T09:04:34.271Z,0.10
2019-03-04T09:05:34.366Z,0.20
2019-03-04T09:06:34.245Z,0.20
2019-03-04T09:07:34.238Z,0.20
2019-03-04T09:08:34.223Z,0.50
2019-03-04T09:09:34.285Z,0.10
2019-03-04T09:10:34.217Z,0.20
2019-03-04T09:11:34.195Z,0.20
2019-03-04T09:12:35.916Z,0.10
2019-03-04T09:13:34.260Z,0.30
2019-03-04T09:14:34.158Z,0.20
2019-03-04T09:15:39.630Z,0.30
2019-03-04T09:16:34.137Z,0.30
2019-03-04T09:17:57.232Z,0.30
2019-03-04T09:18:34.115Z,0.40
2019-03-04T09:19:35.121Z,0.20
2019-03-04T09:20:34.105Z,0.30
2019-03-04T09:21:34.108Z,0.10
2019-03-04T09:22:34.071Z,0.20
2019-03-04T09:23:34.127Z,0.20
2019-03-04T09:24:34.048Z,0.20
2019-03-04T09:25:34.065Z,0.10
2019-03-04T09:26:34.026Z,0.40
2019-03-04T09:27:34.047Z,0.30
2019-03-04T09:28:34.002Z,0.20
2019-03-04T09:29:34.061Z,0.20
2019-03-04T09:30:34.016Z,0.20
2019-03-04T09:31:34.078Z,0.20
2019-03-04T09:32:33.962Z,0.20
2019-03-04T09:33:33.987Z,0.30
2019-03-04T09:34:33.936Z,0.30
2019-03-04T09:35:34.032Z,0.50
2019-03-04T09:36:33.914Z,0.30
2019-03-04T09:37:34.014Z,0.30
2019-03-04T09:38:33.894Z,0.30
2019-03-04T09:39:33.934Z,0.30
2019-03-04T09:40:33.887Z,0.20
2019-03-04T09:41:33.939Z,0.20
2019-03-04T09:42:33.849Z,0.20
2019-03-04T09:43:33.854Z,0.40
2019-03-04T09:44:33.828Z,0.20
2019-03-04T09:45:38.713Z,0.30
2019-03-04T09:46:34.824Z,0.30
2019-03-04T09:47:33.882Z,0.30
2019-03-04T09:48:33.786Z,0.30
2019-03-04T09:49:33.791Z,0.50
2019-03-04T09:50:33.763Z,0.20
2019-03-04T09:51:33.835Z,0.20
2019-03-04T09:52:33.745Z,0.10
2019-03-04T09:53:39.582Z,0.30
2019-03-04T09:54:34.715Z,0.20
2019-03-04T09:55:33.732Z,0.60
2019-03-04T09:56:33.717Z,0.30
2019-03-04T09:57:33.741Z,0.10
2019-03-04T09:58:33.676Z,0.20
2019-03-04T09:59:33.755Z,0.20
2019-03-04T10:00:33.702Z,0.30
2019-03-04T10:01:35.747Z,0.20
2019-03-04T10:02:33.629Z,0.40
2019-03-04T10:03:48.632Z,0.40
2019-03-04T10:04:33.609Z,0.30
2019-03-04T10:05:34.616Z,0.30
2019-03-04T10:06:33.606Z,0.60
2019-03-04T10:07:33.604Z,0.20
2019-03-04T10:08:33.563Z,0.50
2019-03-04T10:09:34.016Z,0.50
2019-03-04T10:10:34.009Z,0.50
2019-03-04T10:11:33.562Z,0.20
2019-03-04T10:12:33.520Z,0.40
2019-03-04T10:13:33.544Z,0.30
2019-03-04T10:14:33.496Z,0.30
2019-03-04T10:15:33.559Z,0.30
2019-03-04T10:16:33.491Z,0.50
2019-03-04T10:17:33.571Z,0.50
2019-03-04T10:18:33.457Z,0.40
2019-03-04T10:19:33.483Z,0.20
2019-03-04T10:20:33.434Z,0.30
2019-03-04T10:21:33.528Z,0.20
2019-03-04T10:22:33.410Z,0.30
2019-03-04T10:23:33.404Z,0.40
2019-03-04T10:24:33.389Z,0.20
2019-03-04T10:25:33.421Z,0.30
2019-03-04T10:26:33.382Z,0.40
2019-03-04T10:27:33.436Z,0.30
2019-03-04T10:28:33.345Z,0.40
2019-03-04T10:29:33.347Z,0.40
2019-03-04T10:30:33.327Z,0.40
2019-03-04T10:31:33.395Z,0.40
2019-03-04T10:32:33.300Z,0.20
2019-03-04T10:33:33.373Z,0.50
2019-03-04T10:34:33.278Z,0.20
2019-03-04T10:35:33.286Z,0.30
2019-03-04T10:36:33.291Z,0.40
2019-03-04T10:37:33.305Z,0.40
2019-03-04T10:38:33.234Z,0.20
2019-03-04T10:39:33.312Z,0.30
2019-03-04T10:40:33.211Z,0.80
2019-03-04T10:41:33.224Z,0.20
2019-03-04T10:42:33.205Z,0.50
2019-03-04T10:43:33.291Z,0.50
2019-03-04T10:44:37.578Z,0.50
2019-03-04T10:45:33.251Z,0.70
2019-03-04T10:46:33.148Z,0.40
2019-03-04T10:47:47.633Z,0.30
2019-03-04T10:48:33.124Z,0.40
2019-03-04T10:49:33.180Z,0.20
2019-03-04T10:50:33.106Z,0.50
2019-03-04T10:51:34.113Z,0.50
2019-03-04T10:52:33.095Z,0.60
2019-03-04T10:53:33.102Z,0.40
2019-03-04T10:54:33.058Z,0.50
2019-03-04T10:55:41.677Z,0.20
2019-03-04T10:56:34.035Z,0.20
2019-03-04T10:57:33.068Z,0.40
2019-03-04T10:58:33.025Z,0.10
2019-03-04T10:59:33.058Z,0.10
2019-03-04T11:00:33.025Z,0.10
2019-03-04T11:01:33.063Z,0.20
2019-03-04T11:02:32.989Z,0.10
2019-03-04T11:03:33.086Z,0.20
2019-03-04T11:04:32.957Z,0.20
2019-03-04T11:05:32.979Z,0.20
2019-03-04T11:06:32.928Z,0.10
2019-03-04T11:07:33.030Z,0.10
2019-03-04T11:08:32.909Z,0.10
2019-03-04T11:09:33.052Z,0.10
2019-03-04T11:10:32.891Z,0.20
2019-03-04T11:11:32.920Z,0.20
2019-03-04T11:12:32.897Z,0.10
2019-03-04T11:13:32.931Z,0.20
2019-03-04T11:14:32.840Z,0.10
2019-03-04T11:15:32.849Z,0.20
2019-03-04T11:16:32.824Z,0.10
2019-03-04T11:17:32.906Z,0.10
2019-03-04T11:18:32.797Z,0.20
2019-03-04T11:19:32.870Z,0.10
2019-03-04T11:20:32.778Z,0.20
2019-03-04T11:21:32.782Z,0.10
2019-03-04T11:22:32.765Z,0.10
2019-03-04T11:23:32.797Z,0.10
2019-03-04T11:24:32.734Z,0.20
2019-03-04T11:25:32.813Z,0.10
2019-03-04T11:26:32.713Z,0.20
2019-03-04T11:27:32.756Z,0.10
2019-03-04T11:28:32.696Z,0.20
2019-03-04T11:29:32.747Z,0.10
2019-03-04T11:30:32.668Z,0.10
2019-03-04T11:31:32.750Z,0.20
2019-03-04T11:32:32.663Z,0.10
2019-03-04T11:33:39.630Z,0.20
2019-03-04T11:34:32.644Z,0.10
2019-03-04T11:35:39.642Z,0.20
2019-03-04T11:36:32.608Z,0.10
2019-03-04T11:37:33.642Z,0.10
2019-03-04T11:38:32.595Z,0.10
2019-03-04T11:39:32.597Z,0.10
2019-03-04T11:40:32.568Z,0.10
2019-03-04T11:41:32.620Z,0.20
2019-03-04T11:42:32.622Z,0.10
2019-03-04T11:43:32.626Z,0.20
2019-03-04T11:44:32.523Z,0.10
2019-03-04T11:45:32.538Z,0.20
2019-03-04T11:46:32.494Z,0.20
2019-03-04T11:47:32.587Z,0.10
2019-03-04T11:48:32.475Z,0.20
2019-03-04T11:49:32.569Z,0.10
2019-03-04T11:50:32.455Z,0.20
2019-03-04T11:51:32.479Z,0.20
2019-03-04T11:52:32.432Z,0.10
2019-03-04T11:53:32.529Z,0.20
2019-03-04T11:54:32.417Z,0.10
2019-03-04T11:55:32.505Z,0.20
2019-03-04T11:56:32.391Z,0.10
2019-03-04T11:57:32.419Z,0.20
2019-03-04T11:58:32.399Z,0.10
2019-03-04T11:59:32.430Z,0.10
2019-03-04T12:00:32.343Z,0.10
2019-03-04T12:01:32.465Z,0.10
2019-03-04T12:02:39.026Z,0.20
2019-03-04T12:03:33.418Z,0.10
2019-03-04T12:04:32.310Z,0.20
2019-03-04T12:05:32.367Z,0.10
2019-03-04T12:06:32.277Z,0.10
2019-03-04T12:07:32.279Z,0.10
2019-03-04T12:08:32.269Z,0.10
2019-03-04T12:09:32.296Z,0.20
2019-03-04T12:10:32.236Z,0.10
2019-03-04T12:11:38.133Z,0.20
2019-03-04T12:12:33.209Z,0.10
2019-03-04T12:13:32.256Z,0.10
2019-03-04T12:14:32.210Z,0.10
2019-03-04T12:15:32.235Z,0.10
2019-03-04T12:16:32.172Z,0.10
2019-03-04T12:17:32.255Z,0.10
2019-03-04T12:18:32.163Z,0.20
2019-03-04T12:19:35.480Z,0.10
2019-03-04T12:20:32.133Z,0.20
2019-03-04T12:21:40.672Z,0.10
2019-03-04T12:22:32.101Z,0.20
2019-03-04T12:23:32.125Z,0.10
2019-03-04T12:24:32.082Z,0.10
2019-03-04T12:25:32.097Z,0.10
2019-03-04T12:26:32.062Z,0.10
2019-03-04T12:27:32.110Z,0.20
2019-03-04T12:28:32.054Z,0.10
2019-03-04T12:29:32.133Z,0.20
2019-03-04T12:30:32.018Z,0.10
2019-03-04T12:31:32.048Z,0.20
2019-03-04T12:32:31.990Z,0.10
2019-03-04T12:33:32.089Z,0.20
2019-03-04T12:34:31.983Z,0.10
2019-03-04T12:35:32.066Z,0.20
2019-03-04T12:36:31.946Z,0.10
2019-03-04T12:37:31.989Z,0.20
2019-03-04T12:38:31.939Z,0.10
2019-03-04T12:39:31.989Z,0.10
2019-03-04T12:40:31.906Z,0.10
2019-03-04T12:41:32.002Z,0.10
2019-03-04T12:42:31.882Z,0.20
2019-03-04T12:43:31.974Z,0.10
2019-03-04T12:44:31.861Z,0.10
2019-03-04T12:45:34.599Z,0.10
2019-03-04T12:46:31.839Z,0.20
2019-03-04T12:47:31.941Z,0.10
2019-03-04T12:48:31.868Z,0.20
2019-03-04T12:49:31.858Z,0.10
2019-03-04T12:50:31.793Z,0.10
2019-03-04T12:51:31.866Z,0.10
2019-03-04T12:52:31.769Z,0.10
2019-03-04T12:53:37.302Z,0.10
2019-03-04T12:54:32.745Z,0.10
2019-03-04T12:55:31.793Z,0.10
2019-03-04T12:56:31.737Z,0.10
2019-03-04T12:57:31.807Z,0.10
2019-03-04T12:58:31.727Z,0.10
2019-03-04T12:59:31.717Z,0.20
2019-03-04T13:00:31.696Z,0.10
2019-03-04T13:01:31.731Z,0.20
2019-03-04T13:02:31.662Z,0.10
2019-03-04T13:03:31.781Z,0.10
2019-03-04T13:04:31.639Z,0.10
2019-03-04T13:05:31.656Z,0.10
2019-03-04T13:06:31.627Z,0.10
2019-03-04T13:07:31.670Z,0.10
2019-03-04T13:08:31.634Z,0.10
2019-03-04T13:09:31.685Z,0.10
2019-03-04T13:10:31.926Z,0.20
2019-03-04T13:11:31.593Z,0.10
2019-03-04T13:12:31.558Z,0.20
2019-03-04T13:13:31.608Z,0.10
2019-03-04T13:14:31.543Z,0.20
2019-03-04T13:15:31.625Z,0.10
2019-03-04T13:16:31.509Z,0.10
2019-03-04T13:17:31.534Z,0.10
2019-03-04T13:18:31.490Z,0.20